sensor_id;sensor_type;location;lat;lon;timestamp;temperature;humidity
74359;DHT22;62792;46.236;6.040;2024-01-30T00:00:24;21.70;41.80
74359;DHT22;62792;46.236;6.040;2024-01-30T00:05:27;21.70;41.90
74359;DHT22;62792;46.236;6.040;2024-01-30T00:10:31;21.70;41.70
74359;DHT22;62792;46.236;6.040;2024-01-30T00:15:34;21.60;41.70
74359;DHT22;62792;46.236;6.040;2024-01-30T00:20:37;21.70;41.60
74359;DHT22;62792;46.236;6.040;2024-01-30T00:25:41;21.70;41.60
74359;DHT22;62792;46.236;6.040;2024-01-30T00:30:44;21.70;41.40
74359;DHT22;62792;46.236;6.040;2024-01-30T00:35:47;21.70;41.40
74359;DHT22;62792;46.236;6.040;2024-01-30T00:40:52;21.70;41.50
74359;DHT22;62792;46.236;6.040;2024-01-30T00:45:54;21.60;41.50
74359;DHT22;62792;46.236;6.040;2024-01-30T00:50:57;21.60;41.20
74359;DHT22;62792;46.236;6.040;2024-01-30T00:56:02;21.70;41.30
74359;DHT22;62792;46.236;6.040;2024-01-30T01:01:05;21.70;41.20
74359;DHT22;62792;46.236;6.040;2024-01-30T01:06:09;21.70;41.30
74359;DHT22;62792;46.236;6.040;2024-01-30T01:11:13;21.70;41.30
74359;DHT22;62792;46.236;6.040;2024-01-30T01:16:16;21.70;41.30
74359;DHT22;62792;46.236;6.040;2024-01-30T01:21:20;21.60;41.20
74359;DHT22;62792;46.236;6.040;2024-01-30T01:26:24;21.60;41.30
74359;DHT22;62792;46.236;6.040;2024-01-30T01:31:27;21.60;41.00
74359;DHT22;62792;46.236;6.040;2024-01-30T01:36:31;21.60;41.10
74359;DHT22;62792;46.236;6.040;2024-01-30T01:41:36;21.60;41.10
74359;DHT22;62792;46.236;6.040;2024-01-30T01:46:39;21.60;40.90
74359;DHT22;62792;46.236;6.040;2024-01-30T01:51:43;21.60;40.90
74359;DHT22;62792;46.236;6.040;2024-01-30T01:56:48;21.60;40.80
74359;DHT22;62792;46.236;6.040;2024-01-30T02:01:52;21.60;40.90
74359;DHT22;62792;46.236;6.040;2024-01-30T02:06:55;21.50;40.90
74359;DHT22;62792;46.236;6.040;2024-01-30T02:12:00;21.50;40.80
74359;DHT22;62792;46.236;6.040;2024-01-30T02:17:03;21.40;40.70
74359;DHT22;62792;46.236;6.040;2024-01-30T02:22:08;21.50;40.80
74359;DHT22;62792;46.236;6.040;2024-01-30T02:27:12;21.60;40.80
74359;DHT22;62792;46.236;6.040;2024-01-30T02:32:15;21.60;40.70
74359;DHT22;62792;46.236;6.040;2024-01-30T02:37:19;21.60;40.60
74359;DHT22;62792;46.236;6.040;2024-01-30T02:42:22;21.50;40.70
74359;DHT22;62792;46.236;6.040;2024-01-30T02:47:25;21.50;40.50
74359;DHT22;62792;46.236;6.040;2024-01-30T02:52:30;21.50;40.60
74359;DHT22;62792;46.236;6.040;2024-01-30T02:57:33;21.50;40.60
74359;DHT22;62792;46.236;6.040;2024-01-30T03:02:36;21.40;40.60
74359;DHT22;62792;46.236;6.040;2024-01-30T03:07:40;21.60;40.40
74359;DHT22;62792;46.236;6.040;2024-01-30T03:12:43;21.50;40.40
74359;DHT22;62792;46.236;6.040;2024-01-30T03:17:46;21.60;40.50
74359;DHT22;62792;46.236;6.040;2024-01-30T03:22:50;21.60;40.50
74359;DHT22;62792;46.236;6.040;2024-01-30T03:27:53;21.50;40.30
74359;DHT22;62792;46.236;6.040;2024-01-30T03:32:56;21.40;40.30
74359;DHT22;62792;46.236;6.040;2024-01-30T03:38:01;21.40;40.20
74359;DHT22;62792;46.236;6.040;2024-01-30T03:43:03;21.40;40.30
74359;DHT22;62792;46.236;6.040;2024-01-30T03:48:07;21.40;40.40
74359;DHT22;62792;46.236;6.040;2024-01-30T03:53:13;21.60;40.20
74359;DHT22;62792;46.236;6.040;2024-01-30T03:58:16;21.60;40.20
74359;DHT22;62792;46.236;6.040;2024-01-30T04:03:19;21.60;40.30
74359;DHT22;62792;46.236;6.040;2024-01-30T04:08:23;21.50;40.10
74359;DHT22;62792;46.236;6.040;2024-01-30T04:13:26;21.50;40.10
74359;DHT22;62792;46.236;6.040;2024-01-30T04:18:29;21.30;40.10
74359;DHT22;62792;46.236;6.040;2024-01-30T04:23:34;21.40;40.20
74359;DHT22;62792;46.236;6.040;2024-01-30T04:28:37;21.50;40.10
74359;DHT22;62792;46.236;6.040;2024-01-30T04:33:40;21.50;40.00
74359;DHT22;62792;46.236;6.040;2024-01-30T04:38:45;21.50;39.90
74359;DHT22;62792;46.236;6.040;2024-01-30T04:43:48;21.50;40.00
74359;DHT22;62792;46.236;6.040;2024-01-30T04:48:50;21.50;40.10
74359;DHT22;62792;46.236;6.040;2024-01-30T04:53:55;21.40;39.90
74359;DHT22;62792;46.236;6.040;2024-01-30T04:58:58;21.40;39.80
74359;DHT22;62792;46.236;6.040;2024-01-30T05:04:01;21.50;40.00
74359;DHT22;62792;46.236;6.040;2024-01-30T05:09:06;21.50;39.80
74359;DHT22;62792;46.236;6.040;2024-01-30T05:14:10;21.50;39.80
74359;DHT22;62792;46.236;6.040;2024-01-30T05:19:13;21.50;39.70
74359;DHT22;62792;46.236;6.040;2024-01-30T05:24:18;21.50;39.60
74359;DHT22;62792;46.236;6.040;2024-01-30T05:29:22;21.40;39.60
74359;DHT22;62792;46.236;6.040;2024-01-30T05:34:26;21.30;39.80
74359;DHT22;62792;46.236;6.040;2024-01-30T05:39:30;21.60;39.70
74359;DHT22;62792;46.236;6.040;2024-01-30T05:44:34;21.60;39.70
74359;DHT22;62792;46.236;6.040;2024-01-30T05:49:37;21.80;39.50
74359;DHT22;62792;46.236;6.040;2024-01-30T05:54:41;21.90;39.40
74359;DHT22;62792;46.236;6.040;2024-01-30T05:59:45;21.90;39.40
74359;DHT22;62792;46.236;6.040;2024-01-30T06:04:49;21.90;39.40
74359;DHT22;62792;46.236;6.040;2024-01-30T06:09:53;22.00;39.40
74359;DHT22;62792;46.236;6.040;2024-01-30T06:14:57;21.90;39.50
74359;DHT22;62792;46.236;6.040;2024-01-30T06:19:59;21.90;39.40
74359;DHT22;62792;46.236;6.040;2024-01-30T06:25:04;21.90;39.60
74359;DHT22;62792;46.236;6.040;2024-01-30T06:30:08;21.90;39.40
74359;DHT22;62792;46.236;6.040;2024-01-30T06:35:11;21.90;39.40
74359;DHT22;62792;46.236;6.040;2024-01-30T06:40:15;22.00;39.20
74359;DHT22;62792;46.236;6.040;2024-01-30T06:45:18;22.00;39.50
74359;DHT22;62792;46.236;6.040;2024-01-30T06:50:21;22.00;39.40
74359;DHT22;62792;46.236;6.040;2024-01-30T06:55:26;22.10;39.30
74359;DHT22;62792;46.236;6.040;2024-01-30T07:00:29;22.00;39.40
74359;DHT22;62792;46.236;6.040;2024-01-30T07:05:32;22.10;39.20
74359;DHT22;62792;46.236;6.040;2024-01-30T07:10:36;22.00;39.40
74359;DHT22;62792;46.236;6.040;2024-01-30T07:15:39;22.00;39.40
74359;DHT22;62792;46.236;6.040;2024-01-30T07:20:42;22.00;39.10
74359;DHT22;62792;46.236;6.040;2024-01-30T07:25:49;22.00;39.20
74359;DHT22;62792;46.236;6.040;2024-01-30T07:30:52;22.10;39.40
74359;DHT22;62792;46.236;6.040;2024-01-30T07:35:55;22.10;39.40
74359;DHT22;62792;46.236;6.040;2024-01-30T07:41:00;22.10;39.30
74359;DHT22;62792;46.236;6.040;2024-01-30T07:46:03;22.10;39.20
74359;DHT22;62792;46.236;6.040;2024-01-30T07:51:07;22.10;39.20
74359;DHT22;62792;46.236;6.040;2024-01-30T07:56:12;22.10;39.10
74359;DHT22;62792;46.236;6.040;2024-01-30T08:01:15;22.10;39.20
74359;DHT22;62792;46.236;6.040;2024-01-30T08:06:18;22.10;39.20
74359;DHT22;62792;46.236;6.040;2024-01-30T08:11:23;22.10;39.20
74359;DHT22;62792;46.236;6.040;2024-01-30T08:16:27;22.20;39.30
74359;DHT22;62792;46.236;6.040;2024-01-30T08:21:30;22.10;39.20
74359;DHT22;62792;46.236;6.040;2024-01-30T08:26:41;22.40;40.50
74359;DHT22;62792;46.236;6.040;2024-01-30T08:31:44;22.50;41.20
74359;DHT22;62792;46.236;6.040;2024-01-30T08:36:48;22.60;42.00
74359;DHT22;62792;46.236;6.040;2024-01-30T08:41:52;22.70;42.00
74359;DHT22;62792;46.236;6.040;2024-01-30T08:46:55;22.90;42.10
74359;DHT22;62792;46.236;6.040;2024-01-30T08:52:00;22.90;41.80
74359;DHT22;62792;46.236;6.040;2024-01-30T08:57:06;22.90;41.90
74359;DHT22;62792;46.236;6.040;2024-01-30T09:02:09;22.90;42.00
74359;DHT22;62792;46.236;6.040;2024-01-30T09:07:14;23.00;41.80
74359;DHT22;62792;46.236;6.040;2024-01-30T09:12:18;23.00;41.80
74359;DHT22;62792;46.236;6.040;2024-01-30T09:17:21;22.80;41.40
74359;DHT22;62792;46.236;6.040;2024-01-30T09:22:24;23.00;41.70
74359;DHT22;62792;46.236;6.040;2024-01-30T09:27:29;23.00;41.60
74359;DHT22;62792;46.236;6.040;2024-01-30T09:32:32;23.00;41.60
74359;DHT22;62792;46.236;6.040;2024-01-30T09:37:35;23.20;42.20
74359;DHT22;62792;46.236;6.040;2024-01-30T09:42:40;23.10;41.50
74359;DHT22;62792;46.236;6.040;2024-01-30T09:47:45;23.20;41.50
74359;DHT22;62792;46.236;6.040;2024-01-30T09:52:48;23.20;41.80
74359;DHT22;62792;46.236;6.040;2024-01-30T09:57:53;23.20;41.60
74359;DHT22;62792;46.236;6.040;2024-01-30T10:02:56;23.20;41.70
74359;DHT22;62792;46.236;6.040;2024-01-30T10:07:59;23.20;41.60
74359;DHT22;62792;46.236;6.040;2024-01-30T10:13:04;23.20;42.10
74359;DHT22;62792;46.236;6.040;2024-01-30T10:18:07;23.20;42.00
74359;DHT22;62792;46.236;6.040;2024-01-30T10:23:11;23.30;42.20
74359;DHT22;62792;46.236;6.040;2024-01-30T10:28:16;23.50;41.80
74359;DHT22;62792;46.236;6.040;2024-01-30T10:33:19;23.60;41.80
74359;DHT22;62792;46.236;6.040;2024-01-30T10:38:22;23.70;41.20
74359;DHT22;62792;46.236;6.040;2024-01-30T10:43:30;23.50;41.90
74359;DHT22;62792;46.236;6.040;2024-01-30T10:48:34;23.60;42.10
74359;DHT22;62792;46.236;6.040;2024-01-30T10:53:41;23.40;42.00
74359;DHT22;62792;46.236;6.040;2024-01-30T10:58:48;23.30;42.20
74359;DHT22;62792;46.236;6.040;2024-01-30T11:03:51;23.20;42.00
74359;DHT22;62792;46.236;6.040;2024-01-30T11:09:01;23.30;42.40
74359;DHT22;62792;46.236;6.040;2024-01-30T11:14:10;23.30;42.60
74359;DHT22;62792;46.236;6.040;2024-01-30T11:19:13;23.40;42.70
74359;DHT22;62792;46.236;6.040;2024-01-30T11:24:16;23.50;42.30
74359;DHT22;62792;46.236;6.040;2024-01-30T11:29:20;23.50;43.10
74359;DHT22;62792;46.236;6.040;2024-01-30T11:34:27;23.50;42.80
74359;DHT22;62792;46.236;6.040;2024-01-30T11:39:30;23.40;42.50
74359;DHT22;62792;46.236;6.040;2024-01-30T11:44:34;23.50;42.80
74359;DHT22;62792;46.236;6.040;2024-01-30T11:49:37;23.50;42.70
74359;DHT22;62792;46.236;6.040;2024-01-30T11:54:40;23.50;42.70
74359;DHT22;62792;46.236;6.040;2024-01-30T11:59:45;23.40;43.00
74359;DHT22;62792;46.236;6.040;2024-01-30T12:04:49;23.40;43.10
74359;DHT22;62792;46.236;6.040;2024-01-30T12:09:52;23.50;42.60
74359;DHT22;62792;46.236;6.040;2024-01-30T12:14:57;23.50;42.70
74359;DHT22;62792;46.236;6.040;2024-01-30T12:20:04;23.50;42.30
74359;DHT22;62792;46.236;6.040;2024-01-30T12:25:11;23.50;42.20
74359;DHT22;62792;46.236;6.040;2024-01-30T12:30:18;23.50;42.60
74359;DHT22;62792;46.236;6.040;2024-01-30T12:35:24;23.50;42.70
74359;DHT22;62792;46.236;6.040;2024-01-30T12:40:27;23.60;43.00
74359;DHT22;62792;46.236;6.040;2024-01-30T12:45:32;23.60;42.50
74359;DHT22;62792;46.236;6.040;2024-01-30T12:50:35;23.70;42.50
74359;DHT22;62792;46.236;6.040;2024-01-30T12:55:38;23.60;43.20
74359;DHT22;62792;46.236;6.040;2024-01-30T13:00:42;23.60;42.60
74359;DHT22;62792;46.236;6.040;2024-01-30T13:05:46;23.60;43.60
74359;DHT22;62792;46.236;6.040;2024-01-30T13:10:49;23.50;43.50
74359;DHT22;62792;46.236;6.040;2024-01-30T13:15:54;23.60;43.40
74359;DHT22;62792;46.236;6.040;2024-01-30T13:20:57;23.60;43.50
74359;DHT22;62792;46.236;6.040;2024-01-30T13:26:00;23.60;43.70
74359;DHT22;62792;46.236;6.040;2024-01-30T13:31:04;23.60;42.70
74359;DHT22;62792;46.236;6.040;2024-01-30T13:36:08;23.60;43.70
74359;DHT22;62792;46.236;6.040;2024-01-30T13:41:13;23.60;43.60
74359;DHT22;62792;46.236;6.040;2024-01-30T13:46:17;23.50;43.40
74359;DHT22;62792;46.236;6.040;2024-01-30T13:51:20;23.40;43.60
74359;DHT22;62792;46.236;6.040;2024-01-30T13:56:24;23.40;43.70
74359;DHT22;62792;46.236;6.040;2024-01-30T14:01:29;23.50;43.30
74359;DHT22;62792;46.236;6.040;2024-01-30T14:06:32;23.50;43.80
74359;DHT22;62792;46.236;6.040;2024-01-30T14:11:35;23.60;44.40
74359;DHT22;62792;46.236;6.040;2024-01-30T14:16:40;23.70;43.60
74359;DHT22;62792;46.236;6.040;2024-01-30T14:21:44;23.80;43.80
74359;DHT22;62792;46.236;6.040;2024-01-30T14:26:47;23.80;43.70
74359;DHT22;62792;46.236;6.040;2024-01-30T14:31:54;23.80;43.70
74359;DHT22;62792;46.236;6.040;2024-01-30T14:36:58;23.80;43.50
74359;DHT22;62792;46.236;6.040;2024-01-30T14:42:01;23.90;43.40
74359;DHT22;62792;46.236;6.040;2024-01-30T14:47:05;23.90;43.30
74359;DHT22;62792;46.236;6.040;2024-01-30T14:52:08;23.80;43.50
74359;DHT22;62792;46.236;6.040;2024-01-30T14:57:12;23.90;43.60
74359;DHT22;62792;46.236;6.040;2024-01-30T15:02:17;23.90;43.20
74359;DHT22;62792;46.236;6.040;2024-01-30T15:07:20;23.90;43.20
74359;DHT22;62792;46.236;6.040;2024-01-30T15:12:36;23.90;43.30
74359;DHT22;62792;46.236;6.040;2024-01-30T15:17:41;24.00;43.60
74359;DHT22;62792;46.236;6.040;2024-01-30T15:22:45;23.90;43.20
74359;DHT22;62792;46.236;6.040;2024-01-30T15:27:50;23.80;43.50
74359;DHT22;62792;46.236;6.040;2024-01-30T15:32:54;23.80;43.60
74359;DHT22;62792;46.236;6.040;2024-01-30T15:37:57;23.90;43.60
74359;DHT22;62792;46.236;6.040;2024-01-30T15:43:00;23.90;43.10
74359;DHT22;62792;46.236;6.040;2024-01-30T15:48:05;24.00;43.40
74359;DHT22;62792;46.236;6.040;2024-01-30T15:53:08;24.10;43.30
74359;DHT22;62792;46.236;6.040;2024-01-30T15:58:11;24.10;43.10
74359;DHT22;62792;46.236;6.040;2024-01-30T16:03:16;24.20;43.10
74359;DHT22;62792;46.236;6.040;2024-01-30T16:08:19;24.20;43.10
74359;DHT22;62792;46.236;6.040;2024-01-30T16:13:22;24.10;43.70
74359;DHT22;62792;46.236;6.040;2024-01-30T16:18:26;24.20;43.90
74359;DHT22;62792;46.236;6.040;2024-01-30T16:23:32;24.20;44.10
74359;DHT22;62792;46.236;6.040;2024-01-30T16:28:35;24.10;43.80
74359;DHT22;62792;46.236;6.040;2024-01-30T16:33:39;24.00;43.80
74359;DHT22;62792;46.236;6.040;2024-01-30T16:38:42;24.00;45.10
74359;DHT22;62792;46.236;6.040;2024-01-30T16:43:45;24.20;43.60
74359;DHT22;62792;46.236;6.040;2024-01-30T16:48:50;24.20;43.30
74359;DHT22;62792;46.236;6.040;2024-01-30T16:53:53;24.00;43.50
74359;DHT22;62792;46.236;6.040;2024-01-30T16:58:56;24.00;43.60
74359;DHT22;62792;46.236;6.040;2024-01-30T17:04:00;24.00;43.30
74359;DHT22;62792;46.236;6.040;2024-01-30T17:09:03;24.00;43.40
74359;DHT22;62792;46.236;6.040;2024-01-30T17:14:07;24.10;43.80
74359;DHT22;62792;46.236;6.040;2024-01-30T17:19:11;24.30;43.40
74359;DHT22;62792;46.236;6.040;2024-01-30T17:24:14;24.30;43.50
74359;DHT22;62792;46.236;6.040;2024-01-30T17:29:17;24.10;43.00
74359;DHT22;62792;46.236;6.040;2024-01-30T17:34:22;23.90;43.20
74359;DHT22;62792;46.236;6.040;2024-01-30T17:39:26;23.90;43.20
74359;DHT22;62792;46.236;6.040;2024-01-30T17:44:29;24.00;43.40
74359;DHT22;62792;46.236;6.040;2024-01-30T17:49:34;24.10;43.30
74359;DHT22;62792;46.236;6.040;2024-01-30T17:54:37;24.10;43.00
74359;DHT22;62792;46.236;6.040;2024-01-30T17:59:40;24.00;43.10
74359;DHT22;62792;46.236;6.040;2024-01-30T18:04:46;24.00;43.10
74359;DHT22;62792;46.236;6.040;2024-01-30T18:09:49;23.90;43.20
74359;DHT22;62792;46.236;6.040;2024-01-30T18:14:52;23.80;43.40
74359;DHT22;62792;46.236;6.040;2024-01-30T18:19:56;23.60;43.40
74359;DHT22;62792;46.236;6.040;2024-01-30T18:24:59;23.50;44.30
74359;DHT22;62792;46.236;6.040;2024-01-30T18:30:03;23.50;44.40
74359;DHT22;62792;46.236;6.040;2024-01-30T18:35:08;23.50;44.30
74359;DHT22;62792;46.236;6.040;2024-01-30T18:40:12;23.40;44.10
74359;DHT22;62792;46.236;6.040;2024-01-30T18:45:18;23.30;44.30
74359;DHT22;62792;46.236;6.040;2024-01-30T18:50:23;23.30;44.30
74359;DHT22;62792;46.236;6.040;2024-01-30T18:55:26;23.30;44.20
74359;DHT22;62792;46.236;6.040;2024-01-30T19:00:29;23.20;44.20
74359;DHT22;62792;46.236;6.040;2024-01-30T19:05:34;23.10;44.30
74359;DHT22;62792;46.236;6.040;2024-01-30T19:10:37;23.00;44.30
74359;DHT22;62792;46.236;6.040;2024-01-30T19:15:44;23.00;44.20
74359;DHT22;62792;46.236;6.040;2024-01-30T19:20:49;23.00;44.00
74359;DHT22;62792;46.236;6.040;2024-01-30T19:25:52;23.00;44.00
74359;DHT22;62792;46.236;6.040;2024-01-30T19:30:55;23.00;44.00
74359;DHT22;62792;46.236;6.040;2024-01-30T19:36:00;22.90;44.10
74359;DHT22;62792;46.236;6.040;2024-01-30T19:41:03;22.90;43.90
74359;DHT22;62792;46.236;6.040;2024-01-30T19:46:07;22.80;43.90
74359;DHT22;62792;46.236;6.040;2024-01-30T19:51:13;22.70;43.90
74359;DHT22;62792;46.236;6.040;2024-01-30T19:56:16;22.70;43.90
74359;DHT22;62792;46.236;6.040;2024-01-30T20:01:19;22.70;43.80
74359;DHT22;62792;46.236;6.040;2024-01-30T20:06:24;22.70;43.70
74359;DHT22;62792;46.236;6.040;2024-01-30T20:11:27;22.80;43.70
74359;DHT22;62792;46.236;6.040;2024-01-30T20:16:34;22.70;43.70
74359;DHT22;62792;46.236;6.040;2024-01-30T20:21:40;22.50;43.60
74359;DHT22;62792;46.236;6.040;2024-01-30T20:26:44;22.60;43.40
74359;DHT22;62792;46.236;6.040;2024-01-30T20:31:48;22.50;43.50
74359;DHT22;62792;46.236;6.040;2024-01-30T20:36:52;22.50;43.50
74359;DHT22;62792;46.236;6.040;2024-01-30T20:41:56;22.50;43.30
74359;DHT22;62792;46.236;6.040;2024-01-30T20:46:58;22.40;43.30
74359;DHT22;62792;46.236;6.040;2024-01-30T20:52:03;22.50;43.40
74359;DHT22;62792;46.236;6.040;2024-01-30T20:57:06;22.50;43.40
74359;DHT22;62792;46.236;6.040;2024-01-30T21:02:09;22.40;43.30
74359;DHT22;62792;46.236;6.040;2024-01-30T21:07:14;22.40;43.00
74359;DHT22;62792;46.236;6.040;2024-01-30T21:12:17;22.40;43.20
74359;DHT22;62792;46.236;6.040;2024-01-30T21:17:20;22.40;43.10
74359;DHT22;62792;46.236;6.040;2024-01-30T21:22:25;22.30;42.90
74359;DHT22;62792;46.236;6.040;2024-01-30T21:27:28;22.30;42.90
74359;DHT22;62792;46.236;6.040;2024-01-30T21:32:31;22.40;42.70
74359;DHT22;62792;46.236;6.040;2024-01-30T21:37:35;22.30;42.80
74359;DHT22;62792;46.236;6.040;2024-01-30T21:42:38;22.40;42.80
74359;DHT22;62792;46.236;6.040;2024-01-30T21:47:41;22.20;42.60
74359;DHT22;62792;46.236;6.040;2024-01-30T21:52:45;22.30;42.70
74359;DHT22;62792;46.236;6.040;2024-01-30T21:57:48;22.20;42.50
74359;DHT22;62792;46.236;6.040;2024-01-30T22:02:51;22.20;42.50
74359;DHT22;62792;46.236;6.040;2024-01-30T22:07:55;22.30;42.50
74359;DHT22;62792;46.236;6.040;2024-01-30T22:12:59;22.30;42.20
74359;DHT22;62792;46.236;6.040;2024-01-30T22:18:02;22.20;42.30
74359;DHT22;62792;46.236;6.040;2024-01-30T22:23:06;22.20;42.10
74359;DHT22;62792;46.236;6.040;2024-01-30T22:28:09;22.20;42.30
74359;DHT22;62792;46.236;6.040;2024-01-30T22:33:13;22.20;42.10
74359;DHT22;62792;46.236;6.040;2024-01-30T22:38:17;22.20;42.00
74359;DHT22;62792;46.236;6.040;2024-01-30T22:43:21;22.10;42.00
74359;DHT22;62792;46.236;6.040;2024-01-30T22:48:26;22.20;41.90
74359;DHT22;62792;46.236;6.040;2024-01-30T22:53:30;22.20;41.80
74359;DHT22;62792;46.236;6.040;2024-01-30T22:58:34;22.10;42.00
74359;DHT22;62792;46.236;6.040;2024-01-30T23:03:37;22.20;41.60
74359;DHT22;62792;46.236;6.040;2024-01-30T23:08:41;22.20;41.60
74359;DHT22;62792;46.236;6.040;2024-01-30T23:13:44;22.10;41.70
74359;DHT22;62792;46.236;6.040;2024-01-30T23:18:47;22.10;41.60
74359;DHT22;62792;46.236;6.040;2024-01-30T23:23:53;22.10;41.70
74359;DHT22;62792;46.236;6.040;2024-01-30T23:28:56;22.10;41.50
74359;DHT22;62792;46.236;6.040;2024-01-30T23:34:00;22.10;41.60
74359;DHT22;62792;46.236;6.040;2024-01-30T23:39:04;22.10;41.50
74359;DHT22;62792;46.236;6.040;2024-01-30T23:44:07;22.00;41.30
74359;DHT22;62792;46.236;6.040;2024-01-30T23:49:10;22.10;41.40
74359;DHT22;62792;46.236;6.040;2024-01-30T23:54:15;22.00;41.30
74359;DHT22;62792;46.236;6.040;2024-01-30T23:59:18;22.00;41.40
